sensor_id;sensor_type;location;lat;lon;timestamp;temperature;humidity
13205;DHT22;6667;52.634;9.226;2023-06-22T00:00:12;19.90;99.90
13205;DHT22;6667;52.634;9.226;2023-06-22T00:13:30;19.80;99.90
13205;DHT22;6667;52.634;9.226;2023-06-22T00:23:19;19.70;99.90
13205;DHT22;6667;52.634;9.226;2023-06-22T00:26:02;19.50;99.90
13205;DHT22;6667;52.634;9.226;2023-06-22T00:32:30;19.50;99.90
13205;DHT22;6667;52.634;9.226;2023-06-22T00:35:23;19.50;99.90
13205;DHT22;6667;52.634;9.226;2023-06-22T00:51:24;19.30;99.90
13205;DHT22;6667;52.634;9.226;2023-06-22T00:54:20;19.20;99.90
13205;DHT22;6667;52.634;9.226;2023-06-22T01:00:40;19.20;99.90
13205;DHT22;6667;52.634;9.226;2023-06-22T01:20:30;18.80;99.90
13205;DHT22;6667;52.634;9.226;2023-06-22T01:26:01;18.80;99.90
13205;DHT22;6667;52.634;9.226;2023-06-22T01:31:28;18.70;99.90
13205;DHT22;6667;52.634;9.226;2023-06-22T01:37:01;18.60;99.90
13205;DHT22;6667;52.634;9.226;2023-06-22T01:39:32;18.60;99.90
13205;DHT22;6667;52.634;9.226;2023-06-22T01:42:03;18.60;99.90
13205;DHT22;6667;52.634;9.226;2023-06-22T01:52:00;18.40;99.90
13205;DHT22;6667;52.634;9.226;2023-06-22T01:54:30;18.30;99.90
13205;DHT22;6667;52.634;9.226;2023-06-22T01:57:00;18.40;99.90
13205;DHT22;6667;52.634;9.226;2023-06-22T02:02:45;18.20;99.90
13205;DHT22;6667;52.634;9.226;2023-06-22T02:05:52;18.20;99.90
13205;DHT22;6667;52.634;9.226;2023-06-22T02:09:09;18.10;99.90
13205;DHT22;6667;52.634;9.226;2023-06-22T02:12:21;18.10;99.90
13205;DHT22;6667;52.634;9.226;2023-06-22T02:15:31;18.10;99.90
13205;DHT22;6667;52.634;9.226;2023-06-22T02:18:35;18.10;99.90
13205;DHT22;6667;52.634;9.226;2023-06-22T02:41:51;17.70;99.90
13205;DHT22;6667;52.634;9.226;2023-06-22T02:44:28;17.70;99.90
13205;DHT22;6667;52.634;9.226;2023-06-22T02:53:40;17.70;99.90
13205;DHT22;6667;52.634;9.226;2023-06-22T03:02:50;17.80;99.90
13205;DHT22;6667;52.634;9.226;2023-06-22T03:12:15;17.80;99.90
13205;DHT22;6667;52.634;9.226;2023-06-22T03:14:57;17.80;99.90
13205;DHT22;6667;52.634;9.226;2023-06-22T03:17:27;17.60;99.90
13205;DHT22;6667;52.634;9.226;2023-06-22T03:20:03;17.60;99.90
13205;DHT22;6667;52.634;9.226;2023-06-22T03:22:55;17.60;99.90
13205;DHT22;6667;52.634;9.226;2023-06-22T03:25:55;17.60;99.90
13205;DHT22;6667;52.634;9.226;2023-06-22T03:32:01;17.50;99.90
13205;DHT22;6667;52.634;9.226;2023-06-22T03:38:07;17.50;99.90
13205;DHT22;6667;52.634;9.226;2023-06-22T03:47:32;17.60;99.90
13205;DHT22;6667;52.634;9.226;2023-06-22T03:50:21;17.60;99.90
13205;DHT22;6667;52.634;9.226;2023-06-22T03:53:19;17.60;99.90
13205;DHT22;6667;52.634;9.226;2023-06-22T03:55:51;17.60;99.90
13205;DHT22;6667;52.634;9.226;2023-06-22T03:58:23;17.70;99.90
13205;DHT22;6667;52.634;9.226;2023-06-22T04:00:54;17.70;99.90
13205;DHT22;6667;52.634;9.226;2023-06-22T04:03:25;17.70;99.90
13205;DHT22;6667;52.634;9.226;2023-06-22T04:05:54;17.70;99.90
13205;DHT22;6667;52.634;9.226;2023-06-22T04:08:23;17.80;99.90
13205;DHT22;6667;52.634;9.226;2023-06-22T04:10:55;17.80;99.90
13205;DHT22;6667;52.634;9.226;2023-06-22T04:13:26;18.00;99.90
13205;DHT22;6667;52.634;9.226;2023-06-22T04:15:55;18.00;99.90
13205;DHT22;6667;52.634;9.226;2023-06-22T04:18:26;18.00;99.90
13205;DHT22;6667;52.634;9.226;2023-06-22T04:20:56;18.00;99.90
13205;DHT22;6667;52.634;9.226;2023-06-22T04:23:41;18.00;99.90
13205;DHT22;6667;52.634;9.226;2023-06-22T04:26:13;18.10;99.90
13205;DHT22;6667;52.634;9.226;2023-06-22T04:28:42;18.20;99.90
13205;DHT22;6667;52.634;9.226;2023-06-22T04:34:26;18.20;99.90
13205;DHT22;6667;52.634;9.226;2023-06-22T04:37:06;18.30;99.90
13205;DHT22;6667;52.634;9.226;2023-06-22T04:39:54;18.40;99.90
13205;DHT22;6667;52.634;9.226;2023-06-22T04:43:03;18.40;99.90
13205;DHT22;6667;52.634;9.226;2023-06-22T04:45:47;18.60;99.90
13205;DHT22;6667;52.634;9.226;2023-06-22T04:48:36;18.80;99.90
13205;DHT22;6667;52.634;9.226;2023-06-22T04:51:10;19.00;99.90
13205;DHT22;6667;52.634;9.226;2023-06-22T04:53:44;19.00;99.90
13205;DHT22;6667;52.634;9.226;2023-06-22T04:56:24;19.10;99.90
13205;DHT22;6667;52.634;9.226;2023-06-22T04:59:11;19.20;99.90
13205;DHT22;6667;52.634;9.226;2023-06-22T05:02:07;19.40;99.90
13205;DHT22;6667;52.634;9.226;2023-06-22T05:04:47;19.60;99.90
13205;DHT22;6667;52.634;9.226;2023-06-22T05:07:46;19.80;99.90
13205;DHT22;6667;52.634;9.226;2023-06-22T05:10:25;19.90;99.90
13205;DHT22;6667;52.634;9.226;2023-06-22T05:13:09;20.00;99.90
13205;DHT22;6667;52.634;9.226;2023-06-22T05:15:42;20.20;99.90
13205;DHT22;6667;52.634;9.226;2023-06-22T05:18:16;20.40;99.90
13205;DHT22;6667;52.634;9.226;2023-06-22T05:20:55;20.50;99.90
13205;DHT22;6667;52.634;9.226;2023-06-22T05:26:42;20.80;99.90
13205;DHT22;6667;52.634;9.226;2023-06-22T05:29:22;21.00;99.90
13205;DHT22;6667;52.634;9.226;2023-06-22T05:32:02;21.40;99.90
13205;DHT22;6667;52.634;9.226;2023-06-22T05:41:32;22.30;99.90
13205;DHT22;6667;52.634;9.226;2023-06-22T05:47:22;22.50;99.90
13205;DHT22;6667;52.634;9.226;2023-06-22T05:50:02;22.60;99.90
13205;DHT22;6667;52.634;9.226;2023-06-22T05:52:44;22.90;99.90
13205;DHT22;6667;52.634;9.226;2023-06-22T05:55:30;22.90;99.90
13205;DHT22;6667;52.634;9.226;2023-06-22T05:58:07;22.70;99.90
13205;DHT22;6667;52.634;9.226;2023-06-22T06:01:00;22.60;99.90
13205;DHT22;6667;52.634;9.226;2023-06-22T06:03:35;22.80;99.90
13205;DHT22;6667;52.634;9.226;2023-06-22T06:06:23;22.90;99.90
13205;DHT22;6667;52.634;9.226;2023-06-22T06:09:09;23.20;99.90
13205;DHT22;6667;52.634;9.226;2023-06-22T06:11:45;23.40;99.90
13205;DHT22;6667;52.634;9.226;2023-06-22T06:14:30;23.50;99.90
13205;DHT22;6667;52.634;9.226;2023-06-22T06:17:10;23.80;99.90
13205;DHT22;6667;52.634;9.226;2023-06-22T06:20:00;24.00;99.90
13205;DHT22;6667;52.634;9.226;2023-06-22T06:22:35;23.80;99.90
13205;DHT22;6667;52.634;9.226;2023-06-22T06:25:21;24.10;99.90
13205;DHT22;6667;52.634;9.226;2023-06-22T06:28:04;24.40;99.90
13205;DHT22;6667;52.634;9.226;2023-06-22T06:30:38;24.60;99.90
13205;DHT22;6667;52.634;9.226;2023-06-22T06:33:21;24.50;99.90
13205;DHT22;6667;52.634;9.226;2023-06-22T06:35:56;23.70;99.90
13205;DHT22;6667;52.634;9.226;2023-06-22T06:38:32;24.10;99.90
13205;DHT22;6667;52.634;9.226;2023-06-22T06:41:11;24.60;99.90
13205;DHT22;6667;52.634;9.226;2023-06-22T06:43:52;24.50;99.90
13205;DHT22;6667;52.634;9.226;2023-06-22T06:46:26;25.20;99.90
13205;DHT22;6667;52.634;9.226;2023-06-22T06:49:09;25.30;99.90
13205;DHT22;6667;52.634;9.226;2023-06-22T06:55:30;25.60;99.90
13205;DHT22;6667;52.634;9.226;2023-06-22T06:58:10;26.50;99.90
13205;DHT22;6667;52.634;9.226;2023-06-22T07:00:53;26.50;99.90
13205;DHT22;6667;52.634;9.226;2023-06-22T07:03:36;27.00;99.90
13205;DHT22;6667;52.634;9.226;2023-06-22T07:06:24;27.40;99.90
13205;DHT22;6667;52.634;9.226;2023-06-22T07:12:32;27.50;99.90
13205;DHT22;6667;52.634;9.226;2023-06-22T07:15:17;27.80;99.90
13205;DHT22;6667;52.634;9.226;2023-06-22T07:18:02;28.10;99.90
13205;DHT22;6667;52.634;9.226;2023-06-22T07:24:14;28.60;99.90
13205;DHT22;6667;52.634;9.226;2023-06-22T07:27:44;29.00;99.90
13205;DHT22;6667;52.634;9.226;2023-06-22T07:30:20;29.70;99.90
13205;DHT22;6667;52.634;9.226;2023-06-22T07:33:00;30.00;99.90
13205;DHT22;6667;52.634;9.226;2023-06-22T07:35:37;29.90;99.90
13205;DHT22;6667;52.634;9.226;2023-06-22T07:38:13;29.50;99.90
13205;DHT22;6667;52.634;9.226;2023-06-22T07:47:30;30.30;99.90
13205;DHT22;6667;52.634;9.226;2023-06-22T07:50:24;30.90;99.90
13205;DHT22;6667;52.634;9.226;2023-06-22T07:59:16;30.50;99.90
13205;DHT22;6667;52.634;9.226;2023-06-22T08:01:45;31.10;99.90
13205;DHT22;6667;52.634;9.226;2023-06-22T08:04:15;31.10;99.90
13205;DHT22;6667;52.634;9.226;2023-06-22T08:06:59;32.00;99.90
13205;DHT22;6667;52.634;9.226;2023-06-22T08:09:52;30.90;99.90
13205;DHT22;6667;52.634;9.226;2023-06-22T08:12:23;32.10;99.90
13205;DHT22;6667;52.634;9.226;2023-06-22T08:14:54;31.90;99.90
13205;DHT22;6667;52.634;9.226;2023-06-22T08:17:32;31.80;99.90
13205;DHT22;6667;52.634;9.226;2023-06-22T08:20:00;32.10;99.90
13205;DHT22;6667;52.634;9.226;2023-06-22T08:22:37;32.60;99.90
13205;DHT22;6667;52.634;9.226;2023-06-22T08:25:06;33.50;99.90
13205;DHT22;6667;52.634;9.226;2023-06-22T08:27:37;33.10;99.90
13205;DHT22;6667;52.634;9.226;2023-06-22T08:30:07;33.50;99.90
13205;DHT22;6667;52.634;9.226;2023-06-22T08:32:41;33.60;99.90
13205;DHT22;6667;52.634;9.226;2023-06-22T08:35:09;33.50;99.90
13205;DHT22;6667;52.634;9.226;2023-06-22T08:37:37;33.50;99.90
13205;DHT22;6667;52.634;9.226;2023-06-22T08:43:18;32.90;99.90
13205;DHT22;6667;52.634;9.226;2023-06-22T08:45:45;33.30;99.90
13205;DHT22;6667;52.634;9.226;2023-06-22T08:48:17;31.90;99.90
13205;DHT22;6667;52.634;9.226;2023-06-22T08:50:47;31.20;99.90
13205;DHT22;6667;52.634;9.226;2023-06-22T08:53:18;30.80;99.90
13205;DHT22;6667;52.634;9.226;2023-06-22T08:55:48;29.70;99.90
13205;DHT22;6667;52.634;9.226;2023-06-22T08:58:36;30.00;99.90
13205;DHT22;6667;52.634;9.226;2023-06-22T09:01:04;29.90;99.90
13205;DHT22;6667;52.634;9.226;2023-06-22T09:03:33;30.30;99.90
13205;DHT22;6667;52.634;9.226;2023-06-22T09:06:04;30.60;99.90
13205;DHT22;6667;52.634;9.226;2023-06-22T09:08:32;30.60;99.90
13205;DHT22;6667;52.634;9.226;2023-06-22T09:11:07;31.70;99.90
13205;DHT22;6667;52.634;9.226;2023-06-22T09:13:34;32.50;99.90
13205;DHT22;6667;52.634;9.226;2023-06-22T09:16:03;31.60;99.90
13205;DHT22;6667;52.634;9.226;2023-06-22T09:18:33;30.70;99.90
13205;DHT22;6667;52.634;9.226;2023-06-22T09:21:02;30.80;99.90
13205;DHT22;6667;52.634;9.226;2023-06-22T09:23:33;31.70;99.90
13205;DHT22;6667;52.634;9.226;2023-06-22T09:26:30;31.70;99.90
13205;DHT22;6667;52.634;9.226;2023-06-22T09:29:07;31.70;99.90
13205;DHT22;6667;52.634;9.226;2023-06-22T09:31:44;31.70;99.90
13205;DHT22;6667;52.634;9.226;2023-06-22T09:35:01;32.00;99.90
13205;DHT22;6667;52.634;9.226;2023-06-22T09:37:47;31.20;99.90
13205;DHT22;6667;52.634;9.226;2023-06-22T09:40:36;31.90;99.90
13205;DHT22;6667;52.634;9.226;2023-06-22T09:43:07;30.90;99.90
13205;DHT22;6667;52.634;9.226;2023-06-22T09:45:35;31.10;99.90
13205;DHT22;6667;52.634;9.226;2023-06-22T09:48:03;31.30;99.90
13205;DHT22;6667;52.634;9.226;2023-06-22T09:50:42;30.90;99.90
13205;DHT22;6667;52.634;9.226;2023-06-22T09:53:28;31.20;99.90
13205;DHT22;6667;52.634;9.226;2023-06-22T09:56:01;30.50;99.90
13205;DHT22;6667;52.634;9.226;2023-06-22T09:58:39;30.60;99.90
13205;DHT22;6667;52.634;9.226;2023-06-22T10:01:49;29.90;99.90
13205;DHT22;6667;52.634;9.226;2023-06-22T10:04:25;29.80;99.90
13205;DHT22;6667;52.634;9.226;2023-06-22T10:07:40;29.50;99.90
13205;DHT22;6667;52.634;9.226;2023-06-22T10:10:25;29.30;99.90
13205;DHT22;6667;52.634;9.226;2023-06-22T10:13:14;29.30;99.90
13205;DHT22;6667;52.634;9.226;2023-06-22T10:15:43;29.20;99.90
13205;DHT22;6667;52.634;9.226;2023-06-22T10:25:18;30.30;99.90
13205;DHT22;6667;52.634;9.226;2023-06-22T10:28:40;29.90;99.90
13205;DHT22;6667;52.634;9.226;2023-06-22T10:38:21;29.80;99.90
13205;DHT22;6667;52.634;9.226;2023-06-22T10:57:34;30.20;99.90
13205;DHT22;6667;52.634;9.226;2023-06-22T11:04:23;29.90;99.90
13205;DHT22;6667;52.634;9.226;2023-06-22T11:07:37;29.90;99.90
13205;DHT22;6667;52.634;9.226;2023-06-22T11:17:02;30.00;99.90
13205;DHT22;6667;52.634;9.226;2023-06-22T11:19:34;30.00;99.90
13205;DHT22;6667;52.634;9.226;2023-06-22T11:22:10;30.40;99.90
13205;DHT22;6667;52.634;9.226;2023-06-22T11:34:46;30.50;99.90
13205;DHT22;6667;52.634;9.226;2023-06-22T11:37:34;30.30;99.90
13205;DHT22;6667;52.634;9.226;2023-06-22T11:47:14;29.50;99.90
13205;DHT22;6667;52.634;9.226;2023-06-22T11:50:03;30.10;99.90
13205;DHT22;6667;52.634;9.226;2023-06-22T11:52:44;30.50;99.90
13205;DHT22;6667;52.634;9.226;2023-06-22T12:01:25;29.70;99.90
13205;DHT22;6667;52.634;9.226;2023-06-22T12:03:59;29.90;99.90
13205;DHT22;6667;52.634;9.226;2023-06-22T12:06:27;29.50;99.90
13205;DHT22;6667;52.634;9.226;2023-06-22T12:09:04;29.50;99.90
13205;DHT22;6667;52.634;9.226;2023-06-22T12:17:48;29.00;99.90
13205;DHT22;6667;52.634;9.226;2023-06-22T12:20:19;28.80;99.90
13205;DHT22;6667;52.634;9.226;2023-06-22T12:22:50;29.10;99.90
13205;DHT22;6667;52.634;9.226;2023-06-22T12:25:40;29.10;99.90
13205;DHT22;6667;52.634;9.226;2023-06-22T12:35:22;30.50;99.90
13205;DHT22;6667;52.634;9.226;2023-06-22T12:37:49;29.80;99.90
13205;DHT22;6667;52.634;9.226;2023-06-22T12:40:31;30.10;99.90
13205;DHT22;6667;52.634;9.226;2023-06-22T12:42:59;29.70;99.90
13205;DHT22;6667;52.634;9.226;2023-06-22T12:45:33;30.00;99.90
13205;DHT22;6667;52.634;9.226;2023-06-22T12:48:29;30.00;99.90
13205;DHT22;6667;52.634;9.226;2023-06-22T12:50:58;29.90;99.90
13205;DHT22;6667;52.634;9.226;2023-06-22T12:53:26;30.00;99.90
13205;DHT22;6667;52.634;9.226;2023-06-22T12:56:03;30.70;99.90
13205;DHT22;6667;52.634;9.226;2023-06-22T12:58:34;30.40;99.90
13205;DHT22;6667;52.634;9.226;2023-06-22T13:01:06;29.70;99.90
13205;DHT22;6667;52.634;9.226;2023-06-22T13:03:34;30.30;99.90
13205;DHT22;6667;52.634;9.226;2023-06-22T13:12:23;31.50;99.90
13205;DHT22;6667;52.634;9.226;2023-06-22T13:15:06;30.80;99.90
13205;DHT22;6667;52.634;9.226;2023-06-22T13:17:36;30.80;99.90
13205;DHT22;6667;52.634;9.226;2023-06-22T13:20:04;30.70;99.90
13205;DHT22;6667;52.634;9.226;2023-06-22T13:22:34;30.20;99.90
13205;DHT22;6667;52.634;9.226;2023-06-22T13:25:06;30.20;99.90
13205;DHT22;6667;52.634;9.226;2023-06-22T13:41:10;31.40;99.90
13205;DHT22;6667;52.634;9.226;2023-06-22T13:43:33;31.10;99.90
13205;DHT22;6667;52.634;9.226;2023-06-22T13:46:01;30.80;99.90
13205;DHT22;6667;52.634;9.226;2023-06-22T13:48:39;30.90;99.90
13205;DHT22;6667;52.634;9.226;2023-06-22T13:51:08;30.80;99.90
13205;DHT22;6667;52.634;9.226;2023-06-22T13:54:09;30.80;99.90
13205;DHT22;6667;52.634;9.226;2023-06-22T13:57:00;30.90;99.90
13205;DHT22;6667;52.634;9.226;2023-06-22T14:02:51;29.30;99.90
13205;DHT22;6667;52.634;9.226;2023-06-22T14:05:24;29.30;99.90
13205;DHT22;6667;52.634;9.226;2023-06-22T14:11:03;29.30;99.90
13205;DHT22;6667;52.634;9.226;2023-06-22T14:16:35;29.30;99.90
13205;DHT22;6667;52.634;9.226;2023-06-22T14:25:31;28.40;99.90
13205;DHT22;6667;52.634;9.226;2023-06-22T14:35:18;29.00;99.90
13205;DHT22;6667;52.634;9.226;2023-06-22T14:37:47;29.00;99.90
13205;DHT22;6667;52.634;9.226;2023-06-22T14:47:03;27.10;99.90
13205;DHT22;6667;52.634;9.226;2023-06-22T14:55:57;27.30;99.90
13205;DHT22;6667;52.634;9.226;2023-06-22T14:59:13;27.30;99.90
13205;DHT22;6667;52.634;9.226;2023-06-22T15:01:46;27.00;99.90
13205;DHT22;6667;52.634;9.226;2023-06-22T15:04:17;26.50;99.90
13205;DHT22;6667;52.634;9.226;2023-06-22T15:10:02;25.50;99.90
13205;DHT22;6667;52.634;9.226;2023-06-22T15:12:32;24.90;99.90
13205;DHT22;6667;52.634;9.226;2023-06-22T15:15:03;25.20;99.90
13205;DHT22;6667;52.634;9.226;2023-06-22T15:17:53;25.40;99.90
13205;DHT22;6667;52.634;9.226;2023-06-22T15:20:23;25.60;99.90
13205;DHT22;6667;52.634;9.226;2023-06-22T15:22:52;25.40;99.90
13205;DHT22;6667;52.634;9.226;2023-06-22T15:25:28;25.10;99.90
13205;DHT22;6667;52.634;9.226;2023-06-22T15:31:51;23.50;99.90
13205;DHT22;6667;52.634;9.226;2023-06-22T15:35:07;23.00;99.90
13205;DHT22;6667;52.634;9.226;2023-06-22T15:37:38;23.20;99.90
13205;DHT22;6667;52.634;9.226;2023-06-22T15:40:19;23.30;99.90
13205;DHT22;6667;52.634;9.226;2023-06-22T15:43:09;23.10;99.90
13205;DHT22;6667;52.634;9.226;2023-06-22T15:45:36;23.20;99.90
13205;DHT22;6667;52.634;9.226;2023-06-22T15:48:05;23.40;99.90
13205;DHT22;6667;52.634;9.226;2023-06-22T15:50:32;23.40;99.90
13205;DHT22;6667;52.634;9.226;2023-06-22T15:52:59;23.50;99.90
13205;DHT22;6667;52.634;9.226;2023-06-22T15:55:26;23.40;99.90
13205;DHT22;6667;52.634;9.226;2023-06-22T15:57:54;23.50;99.90
13205;DHT22;6667;52.634;9.226;2023-06-22T16:00:21;23.30;99.90
13205;DHT22;6667;52.634;9.226;2023-06-22T16:03:10;23.10;99.90
13205;DHT22;6667;52.634;9.226;2023-06-22T16:06:17;23.10;99.90
13205;DHT22;6667;52.634;9.226;2023-06-22T16:09:04;23.10;99.90
13205;DHT22;6667;52.634;9.226;2023-06-22T16:11:47;23.20;99.90
13205;DHT22;6667;52.634;9.226;2023-06-22T16:21:06;23.20;99.90
13205;DHT22;6667;52.634;9.226;2023-06-22T16:23:46;23.20;99.90
13205;DHT22;6667;52.634;9.226;2023-06-22T16:26:13;23.10;99.90
13205;DHT22;6667;52.634;9.226;2023-06-22T16:28:41;23.00;99.90
13205;DHT22;6667;52.634;9.226;2023-06-22T16:31:08;23.10;99.90
13205;DHT22;6667;52.634;9.226;2023-06-22T16:33:35;23.20;99.90
13205;DHT22;6667;52.634;9.226;2023-06-22T16:36:39;23.20;99.90
13205;DHT22;6667;52.634;9.226;2023-06-22T16:39:18;23.20;99.90
13205;DHT22;6667;52.634;9.226;2023-06-22T16:42:02;23.20;99.90
13205;DHT22;6667;52.634;9.226;2023-06-22T16:44:29;23.10;99.90
13205;DHT22;6667;52.634;9.226;2023-06-22T16:46:58;22.90;99.90
13205;DHT22;6667;52.634;9.226;2023-06-22T16:49:25;22.90;99.90
13205;DHT22;6667;52.634;9.226;2023-06-22T16:51:58;22.90;99.90
13205;DHT22;6667;52.634;9.226;2023-06-22T16:54:30;22.90;99.90
13205;DHT22;6667;52.634;9.226;2023-06-22T16:57:31;22.80;99.90
13205;DHT22;6667;52.634;9.226;2023-06-22T17:00:11;22.70;99.90
13205;DHT22;6667;52.634;9.226;2023-06-22T17:12:28;22.60;99.90
13205;DHT22;6667;52.634;9.226;2023-06-22T17:15:10;22.50;99.90
13205;DHT22;6667;52.634;9.226;2023-06-22T17:17:41;22.40;99.90
13205;DHT22;6667;52.634;9.226;2023-06-22T17:20:11;22.30;99.90
13205;DHT22;6667;52.634;9.226;2023-06-22T17:25:52;22.20;99.90
13205;DHT22;6667;52.634;9.226;2023-06-22T17:28:26;22.10;99.90
13205;DHT22;6667;52.634;9.226;2023-06-22T17:31:31;22.10;99.90
13205;DHT22;6667;52.634;9.226;2023-06-22T17:34:10;22.10;99.90
13205;DHT22;6667;52.634;9.226;2023-06-22T17:36:43;22.00;99.90
13205;DHT22;6667;52.634;9.226;2023-06-22T17:39:17;22.00;99.90
13205;DHT22;6667;52.634;9.226;2023-06-22T17:41:48;21.90;99.90
13205;DHT22;6667;52.634;9.226;2023-06-22T17:48:22;21.90;99.90
13205;DHT22;6667;52.634;9.226;2023-06-22T18:07:35;21.70;99.90
13205;DHT22;6667;52.634;9.226;2023-06-22T18:13:32;21.70;99.90
13205;DHT22;6667;52.634;9.226;2023-06-22T18:16:03;21.70;99.90
13205;DHT22;6667;52.634;9.226;2023-06-22T18:18:35;21.50;99.90
13205;DHT22;6667;52.634;9.226;2023-06-22T18:21:10;21.50;99.90
13205;DHT22;6667;52.634;9.226;2023-06-22T18:23:44;21.40;99.90
13205;DHT22;6667;52.634;9.226;2023-06-22T18:26:15;21.40;99.90
13205;DHT22;6667;52.634;9.226;2023-06-22T18:29:03;21.40;99.90
13205;DHT22;6667;52.634;9.226;2023-06-22T18:31:34;21.50;99.90
13205;DHT22;6667;52.634;9.226;2023-06-22T18:34:04;21.40;99.90
13205;DHT22;6667;52.634;9.226;2023-06-22T18:36:41;21.30;99.90
13205;DHT22;6667;52.634;9.226;2023-06-22T18:39:12;21.20;99.90
13205;DHT22;6667;52.634;9.226;2023-06-22T18:41:41;21.20;99.90
13205;DHT22;6667;52.634;9.226;2023-06-22T18:44:19;21.10;99.90
13205;DHT22;6667;52.634;9.226;2023-06-22T18:46:50;21.10;99.90
13205;DHT22;6667;52.634;9.226;2023-06-22T18:49:23;20.90;99.90
13205;DHT22;6667;52.634;9.226;2023-06-22T18:51:56;21.00;99.90
13205;DHT22;6667;52.634;9.226;2023-06-22T18:54:29;20.80;99.90
13205;DHT22;6667;52.634;9.226;2023-06-22T18:56:57;20.60;99.90
13205;DHT22;6667;52.634;9.226;2023-06-22T18:59:50;20.60;99.90
13205;DHT22;6667;52.634;9.226;2023-06-22T19:02:42;20.60;99.90
13205;DHT22;6667;52.634;9.226;2023-06-22T19:09:14;20.60;99.90
13205;DHT22;6667;52.634;9.226;2023-06-22T19:11:47;20.40;99.90
13205;DHT22;6667;52.634;9.226;2023-06-22T19:14:25;20.30;99.90
13205;DHT22;6667;52.634;9.226;2023-06-22T19:20:32;20.20;99.90
13205;DHT22;6667;52.634;9.226;2023-06-22T19:23:01;20.10;99.90
13205;DHT22;6667;52.634;9.226;2023-06-22T19:25:36;20.00;99.90
13205;DHT22;6667;52.634;9.226;2023-06-22T19:31:47;20.10;99.90
13205;DHT22;6667;52.634;9.226;2023-06-22T19:34:35;20.10;99.90
13205;DHT22;6667;52.634;9.226;2023-06-22T19:37:15;20.00;99.90
13205;DHT22;6667;52.634;9.226;2023-06-22T19:39:48;19.90;99.90
13205;DHT22;6667;52.634;9.226;2023-06-22T19:42:31;19.90;99.90
13205;DHT22;6667;52.634;9.226;2023-06-22T19:45:00;19.80;99.90
13205;DHT22;6667;52.634;9.226;2023-06-22T19:50:45;19.70;99.90
13205;DHT22;6667;52.634;9.226;2023-06-22T19:53:13;19.60;99.90
13205;DHT22;6667;52.634;9.226;2023-06-22T19:55:44;19.60;99.90
13205;DHT22;6667;52.634;9.226;2023-06-22T19:58:14;19.60;99.90
13205;DHT22;6667;52.634;9.226;2023-06-22T20:00:42;19.60;99.90
13205;DHT22;6667;52.634;9.226;2023-06-22T20:03:15;19.70;99.90
13205;DHT22;6667;52.634;9.226;2023-06-22T20:05:44;19.90;99.90
13205;DHT22;6667;52.634;9.226;2023-06-22T20:08:42;19.90;99.90
13205;DHT22;6667;52.634;9.226;2023-06-22T20:11:09;19.80;99.90
13205;DHT22;6667;52.634;9.226;2023-06-22T20:13:46;19.70;99.90
13205;DHT22;6667;52.634;9.226;2023-06-22T20:16:13;19.80;99.90
13205;DHT22;6667;52.634;9.226;2023-06-22T20:18:41;19.80;99.90
13205;DHT22;6667;52.634;9.226;2023-06-22T20:21:10;19.80;99.90
13205;DHT22;6667;52.634;9.226;2023-06-22T20:23:37;19.80;99.90
13205;DHT22;6667;52.634;9.226;2023-06-22T20:26:07;19.80;99.90
13205;DHT22;6667;52.634;9.226;2023-06-22T20:28:37;19.80;99.90
13205;DHT22;6667;52.634;9.226;2023-06-22T20:31:05;19.80;99.90
13205;DHT22;6667;52.634;9.226;2023-06-22T20:33:33;19.80;99.90
13205;DHT22;6667;52.634;9.226;2023-06-22T20:36:01;19.80;99.90
13205;DHT22;6667;52.634;9.226;2023-06-22T20:38:28;19.80;99.90
13205;DHT22;6667;52.634;9.226;2023-06-22T20:40:58;19.80;99.90
13205;DHT22;6667;52.634;9.226;2023-06-22T20:43:25;19.80;99.90
13205;DHT22;6667;52.634;9.226;2023-06-22T20:45:54;19.90;99.90
13205;DHT22;6667;52.634;9.226;2023-06-22T20:48:22;19.80;99.90
13205;DHT22;6667;52.634;9.226;2023-06-22T20:50:49;19.80;99.90
13205;DHT22;6667;52.634;9.226;2023-06-22T20:53:16;19.80;99.90
13205;DHT22;6667;52.634;9.226;2023-06-22T20:55:47;19.80;99.90
13205;DHT22;6667;52.634;9.226;2023-06-22T20:58:14;19.80;99.90
13205;DHT22;6667;52.634;9.226;2023-06-22T21:00:42;19.80;99.90
13205;DHT22;6667;52.634;9.226;2023-06-22T21:03:10;19.80;99.90
13205;DHT22;6667;52.634;9.226;2023-06-22T21:05:38;19.90;99.90
13205;DHT22;6667;52.634;9.226;2023-06-22T21:08:06;19.90;99.90
13205;DHT22;6667;52.634;9.226;2023-06-22T21:10:33;20.00;99.90
13205;DHT22;6667;52.634;9.226;2023-06-22T21:13:00;19.90;99.90
13205;DHT22;6667;52.634;9.226;2023-06-22T21:15:28;19.90;99.90
13205;DHT22;6667;52.634;9.226;2023-06-22T21:17:56;20.00;99.90
